Impacts TAF Board
For situational awareness. Not to be used for flight planning purposes.
IDs:

KSAN - San Diego Intl Arpt, CA, US

Issued at 2049 UTC 18 Dec 2018
Updated at 2323 UTC 18 Dec 2018
Potential Impact None Slight Moderate High
Time2251Z 19/00Z 19/01Z 19/02Z 19/03Z 19/04Z 19/05Z 19/06Z 19/07Z 19/08Z 19/09Z 19/10Z 19/11Z 19/12Z>>
Type OBS PRVL PRVL PRVL PRVL PRVL PRVL PRVL PRVL PRVL PRVL PRVL PRVL PRVL
VIS 10 >6 >6 >6 >6 >6 >6 >6 >6 >6 >6 >6 >6 >6
CIG -- -- -- -- -- -- -- -- -- -- -- -- -- --
Cover SCT SCT SCT SCT SCT SCT SCT SCT SCT SCT SCT SCT SCT SCT
FltCat VFR VFR VFR VFR VFR VFR VFR VFR VFR VFR VFR VFR VFR VFR
WX -- -- -- -- -- -- -- -- -- -- -- -- -- --
WDir 300 280 VRB VRB VRB VRB VRB VRB VRB VRB VRB VRB VRB VRB
WSpd 9 9 4 4 4 4 4 4 4 4 4 4 4 4
WGst -- -- -- -- -- -- -- -- -- -- -- -- -- --
Raw TAF
KSAN 182049Z 1821/1924 28009KT P6SM FEW011 SCT250
  FM190100 VRB04KT P6SM SCT010 SCT250
  FM191300 VRB04KT P6SM SCT250
  FM192100 29007KT P6SM SCT250


Raw METAR
KSAN 182251Z 30009KT 10SM FEW011 SCT250 20/14 A3015 RMK AO2 SLP211 T02000139
KSAN 182151Z 31012G18KT 10SM FEW011 SCT250 19/12 A3017 RMK AO2 SLP215 T01890117
KSAN 182051Z 30009KT 10SM FEW011 SCT250 18/12 A3018 RMK AO2 SLP218 T01830117 58024 $

METAR Board
Radar Display
Forecast Discussion
For situational awareness. Not to be used for flight planning purposes.